Time;durP1;ratioP1;P1;durP2;ratioP2;P2;SDS_P1;SDS_P2;PMS_P1;PMS_P2;Temp;Humidity;BMP_temperature;BMP_pressure;BME280_temperature;BME280_humidity;BME280_pressure;Samples;Min_cycle;Max_cycle;Signal;HPM_P1;HPM_P2
2021/10/11 00:01:09;;;;;;;;;53.50;44.75;;;;;16.43;60.05;102381.66;5062973;28;45566;-63
2021/10/11 00:03:35;;;;;;;;;57.25;45.75;;;;;16.43;60.01;102370.88;5062453;28;46081;-62
2021/10/11 00:06:00;;;;;;;;;60.50;48.00;;;;;16.37;59.98;102360.28;5062240;28;45321;-63
2021/10/11 00:08:26;;;;;;;;;59.50;48.25;;;;;16.34;60.10;102357.69;5062466;28;45231;-63
2021/10/11 00:10:52;;;;;;;;;55.25;46.50;;;;;16.28;60.18;102346.16;5061477;28;45252;-62
2021/10/11 00:13:21;;;;;;;;;59.00;45.50;;;;;16.39;60.18;102364.72;5062402;28;46171;-63
2021/10/11 00:15:46;;;;;;;;;57.50;45.25;;;;;16.38;60.37;102359.38;5051853;28;45451;-62
2021/10/11 00:18:12;;;;;;;;;61.75;48.00;;;;;16.36;60.20;102354.03;5061122;28;45465;-63
2021/10/11 00:20:37;;;;;;;;;56.25;46.25;;;;;16.38;60.20;102359.38;5078172;28;45509;-63
2021/10/11 00:23:03;;;;;;;;;57.25;45.00;;;;;16.37;60.44;102354.91;5062031;28;45354;-63
2021/10/11 00:25:28;;;;;;;;;56.50;46.25;;;;;16.41;60.50;102364.66;5054533;28;45425;-63
2021/10/11 00:27:54;;;;;;;;;56.75;46.25;;;;;16.45;60.59;102369.88;5062403;28;45386;-63
2021/10/11 00:30:19;;;;;;;;;60.25;47.00;;;;;16.47;60.45;102376.13;5062511;28;45402;-62
2021/10/11 00:32:47;;;;;;;;;61.00;48.25;;;;;16.42;60.62;102356.53;5049370;28;45414;-62
2021/10/11 00:35:12;;;;;;;;;59.00;46.75;;;;;16.47;60.77;102361.75;5067605;28;45263;-62
2021/10/11 00:37:38;;;;;;;;;64.25;49.50;;;;;16.40;60.94;102365.59;5064017;27;45226;-62
2021/10/11 00:40:05;;;;;;;;;62.50;50.25;;;;;16.50;60.83;102372.44;5073715;28;45471;-62
2021/10/11 00:42:30;;;;;;;;;62.25;49.00;;;;;16.38;60.99;102344.06;5063679;27;46734;-62
2021/10/11 00:44:56;;;;;;;;;61.00;49.00;;;;;16.47;61.02;102364.44;5061591;28;45381;-63
2021/10/11 00:47:21;;;;;;;;;62.75;49.50;;;;;16.46;61.26;102368.09;5055998;28;45462;-63
2021/10/11 00:49:46;;;;;;;;;62.75;49.50;;;;;16.38;61.17;102359.38;5062192;28;45410;-62
2021/10/11 00:52:12;;;;;;;;;63.75;51.25;;;;;16.38;61.30;102356.69;5061438;28;45381;-63
2021/10/11 00:54:37;;;;;;;;;67.50;53.50;;;;;16.41;61.47;102364.66;5061362;28;45592;-63
2021/10/11 00:57:03;;;;;;;;;62.00;50.25;;;;;16.41;61.54;102362.84;5060347;28;45368;-63
2021/10/11 00:59:28;;;;;;;;;63.00;49.75;;;;;16.38;61.68;102362.94;5061857;28;45616;-62
2021/10/11 01:01:53;;;;;;;;;59.50;47.75;;;;;16.33;61.80;102355.94;5061680;28;46337;-62
2021/10/11 01:04:19;;;;;;;;;64.00;51.50;;;;;16.38;61.92;102354.84;5061734;28;45318;-63
2021/10/11 01:06:44;;;;;;;;;63.50;51.50;;;;;16.30;61.73;102355.09;5049182;28;45269;-63
2021/10/11 01:09:11;;;;;;;;;64.00;51.50;;;;;16.33;62.12;102354.13;5061553;28;45982;-62
2021/10/11 01:11:37;;;;;;;;;61.75;49.75;;;;;16.28;62.18;102354.25;5061579;28;45268;-62
2021/10/11 01:14:04;;;;;;;;;67.75;53.75;;;;;16.23;62.33;102340.03;5061778;28;45322;-62
2021/10/11 01:16:30;;;;;;;;;64.25;51.00;;;;;16.24;62.47;102352.59;5048038;28;45456;-63
2021/10/11 01:18:55;;;;;;;;;64.50;50.25;;;;;16.22;62.59;102346.38;5061823;28;45325;-62
2021/10/11 01:21:21;;;;;;;;;64.50;52.00;;;;;16.29;62.45;102353.34;5061216;28;46969;-62
2021/10/11 01:23:47;;;;;;;;;65.25;53.00;;;;;16.29;62.54;102355.16;5059811;28;45280;-63
2021/10/11 01:26:12;;;;;;;;;65.00;51.75;;;;;16.29;62.40;102350.63;5051956;28;45308;-63
2021/10/11 01:28:38;;;;;;;;;65.00;50.50;;;;;16.25;62.13;102348.94;5072641;28;45327;-62
2021/10/11 01:31:03;;;;;;;;;62.25;49.75;;;;;16.22;62.50;102338.28;5059682;27;45497;-63
2021/10/11 01:33:29;;;;;;;;;65.75;51.50;;;;;16.22;62.59;102332.00;5051470;28;45420;-62
2021/10/11 01:35:54;;;;;;;;;61.25;49.25;;;;;16.29;62.63;102347.06;5050454;28;45454;-63
2021/10/11 01:38:19;;;;;;;;;55.75;45.00;;;;;16.23;62.78;102345.44;5051283;28;45423;-62
2021/10/11 01:40:45;;;;;;;;;63.00;51.00;;;;;16.24;62.60;102338.25;5061179;28;46591;-63
2021/10/11 01:43:11;;;;;;;;;62.50;48.25;;;;;16.30;63.03;102344.31;5061266;28;45498;-62
2021/10/11 01:45:37;;;;;;;;;60.25;48.25;;;;;16.32;62.87;102333.47;5060520;28;45331;-63
2021/10/11 01:48:03;;;;;;;;;60.75;48.00;;;;;16.33;62.86;102331.69;5061301;28;45280;-62
2021/10/11 01:50:29;;;;;;;;;65.25;52.25;;;;;16.26;62.93;102326.47;5060902;28;46302;-62
2021/10/11 01:52:54;;;;;;;;;63.50;50.50;;;;;16.30;63.05;102336.25;5060829;28;45161;-62
2021/10/11 01:55:20;;;;;;;;;61.50;49.25;;;;;16.32;63.18;102327.22;5060548;28;45225;-62
2021/10/11 01:57:45;;;;;;;;;64.25;51.75;;;;;16.17;63.08;102320.47;5073191;28;45395;-62
2021/10/11 02:00:11;;;;;;;;;60.75;49.75;;;;;16.23;63.14;102340.03;5058568;28;46153;-62
2021/10/11 02:02:37;;;;;;;;;62.50;50.25;;;;;16.18;63.30;102341.13;5061046;28;45573;-63
2021/10/11 02:05:04;;;;;;;;;66.75;52.75;;;;;16.21;63.28;102357.19;5060272;28;45391;-62
2021/10/11 02:07:29;;;;;;;;;66.50;52.00;;;;;16.05;63.64;102338.78;5059618;28;45508;-62
2021/10/11 02:09:55;;;;;;;;;58.75;47.25;;;;;16.16;63.68;102354.63;5060535;28;45430;-62
2021/10/11 02:12:20;;;;;;;;;59.00;48.00;;;;;16.14;63.45;102350.22;5060767;28;45299;-63
2021/10/11 02:14:47;;;;;;;;;59.25;48.25;;;;;16.19;63.93;102351.84;5060394;28;45318;-62
2021/10/11 02:17:13;;;;;;;;;59.50;47.00;;;;;16.20;63.60;102347.34;5060682;28;45476;-62
2021/10/11 02:19:38;;;;;;;;;55.75;46.50;;;;;16.20;63.55;102341.94;5060467;28;45240;-62
2021/10/11 02:22:03;;;;;;;;;59.25;46.75;;;;;16.20;63.50;102345.50;5060486;28;45220;-62
2021/10/11 02:24:29;;;;;;;;;57.75;45.50;;;;;16.20;63.71;102336.56;5056524;28;45467;-62
2021/10/11 02:26:54;;;;;;;;;63.00;51.00;;;;;16.11;63.79;102329.66;5052513;28;45260;-62
2021/10/11 02:29:19;;;;;;;;;60.25;46.75;;;;;16.18;63.71;102343.81;5060319;28;46013;-63
2021/10/11 02:31:45;;;;;;;;;58.50;45.75;;;;;16.14;64.18;102342.13;5051473;28;45884;-63
2021/10/11 02:34:10;;;;;;;;;59.00;47.00;;;;;16.16;63.79;102335.78;5055162;28;45515;-62
2021/10/11 02:36:35;;;;;;;;;59.75;45.00;;;;;16.19;63.97;102341.06;5060628;28;45208;-62
2021/10/11 02:39:02;;;;;;;;;58.75;46.75;;;;;16.23;63.94;102336.47;5060066;28;45432;-62
2021/10/11 02:41:28;;;;;;;;;58.00;47.00;;;;;16.20;64.05;102321.25;5060467;28;45365;-62
2021/10/11 02:43:53;;;;;;;;;56.50;43.50;;;;;16.16;63.81;102313.34;5059779;28;45441;-62
2021/10/11 02:46:19;;;;;;;;;56.00;44.75;;;;;16.18;63.72;102312.34;5060224;28;45433;-62
2021/10/11 02:48:44;;;;;;;;;61.00;47.75;;;;;16.22;63.80;102315.84;5060242;28;45368;-62
2021/10/11 02:51:09;;;;;;;;;58.75;47.00;;;;;16.21;63.94;102331.13;5060335;28;45303;-62
2021/10/11 02:53:35;;;;;;;;;60.50;47.50;;;;;16.18;63.96;102331.22;5058427;28;45290;-62
2021/10/11 02:56:00;;;;;;;;;56.50;45.00;;;;;16.10;63.86;102314.41;5050366;28;45283;-62
2021/10/11 02:58:25;;;;;;;;;62.00;49.25;;;;;15.91;63.73;102281.78;5059972;28;45332;-62
2021/10/11 03:00:51;;;;;;;;;55.75;45.75;;;;;16.15;64.09;102319.66;5060016;28;45255;-63
2021/10/11 03:03:16;;;;;;;;;58.00;46.75;;;;;16.16;63.92;102318.75;5060117;28;45293;-62
2021/10/11 03:05:41;;;;;;;;;55.50;44.25;;;;;16.11;64.32;102308.09;5051268;28;45370;-62
2021/10/11 03:08:07;;;;;;;;;55.25;44.50;;;;;16.15;64.23;102306.19;5059583;28;46490;-62
2021/10/11 03:10:32;;;;;;;;;52.00;42.50;;;;;16.18;64.06;102314.19;5059918;28;45283;-62
2021/10/11 03:12:58;;;;;;;;;52.25;44.00;;;;;16.18;64.30;102312.34;5059790;28;45216;-62
2021/10/11 03:15:23;;;;;;;;;60.75;47.00;;;;;16.19;64.18;102313.22;5051060;28;45629;-62
2021/10/11 03:17:49;;;;;;;;;55.25;44.50;;;;;16.12;64.31;102299.06;5059367;28;45192;-62
2021/10/11 03:20:14;;;;;;;;;56.25;43.75;;;;;16.18;64.36;102301.59;5058589;28;45334;-62
2021/10/11 03:22:39;;;;;;;;;49.25;40.75;;;;;16.23;64.31;102323.88;5059480;28;45331;-62
2021/10/11 03:25:05;;;;;;;;;48.50;40.75;;;;;16.23;64.36;102320.31;5058986;28;45461;-62
2021/10/11 03:27:30;;;;;;;;;45.75;39.00;;;;;16.24;64.18;102322.94;5059523;28;47423;-63
2021/10/11 03:29:56;;;;;;;;;47.25;41.00;;;;;16.26;64.27;102331.00;5059701;28;45527;-63
2021/10/11 03:32:21;;;;;;;;;48.50;40.00;;;;;16.23;64.36;102323.00;5046579;28;45413;-62
2021/10/11 03:34:46;;;;;;;;;50.00;40.50;;;;;16.25;64.45;102330.09;5058908;28;45390;-62
2021/10/11 03:37:12;;;;;;;;;49.75;39.50;;;;;16.25;64.32;102326.53;5059278;28;45366;-63
2021/10/11 03:39:37;;;;;;;;;47.50;36.25;;;;;16.29;64.44;102325.50;5059622;28;45477;-62
2021/10/11 03:42:03;;;;;;;;;46.50;39.75;;;;;16.28;64.54;102330.00;5059525;28;45294;-62
2021/10/11 03:44:28;;;;;;;;;48.50;35.50;;;;;16.24;64.38;102320.25;5058751;28;45402;-62
2021/10/11 03:46:54;;;;;;;;;36.25;33.25;;;;;16.20;64.39;102309.63;5059378;28;45303;-62
2021/10/11 03:49:19;;;;;;;;;42.00;34.75;;;;;16.25;64.77;102311.22;5059430;28;45319;-62
2021/10/11 03:51:44;;;;;;;;;34.50;30.75;;;;;16.25;64.52;102318.44;5059186;28;45380;-62
2021/10/11 03:54:10;;;;;;;;;34.75;32.00;;;;;16.28;64.65;102329.13;5059538;28;45365;-63
2021/10/11 03:56:35;;;;;;;;;31.00;30.00;;;;;16.32;64.33;102328.09;5071573;28;45400;-62
2021/10/11 03:59:00;;;;;;;;;40.00;34.25;;;;;16.34;64.55;102333.44;5059220;28;45282;-62
2021/10/11 04:01:26;;;;;;;;;35.00;30.00;;;;;16.23;64.41;102326.56;5057994;28;45309;-62
2021/10/11 04:03:53;;;;;;;;;35.25;31.75;;;;;16.23;64.81;102336.47;5058474;28;45330;-62
2021/10/11 04:06:18;;;;;;;;;38.50;32.25;;;;;16.20;65.07;102331.16;5058954;28;46601;-63
2021/10/11 04:08:47;;;;;;;;;30.50;30.00;;;;;16.18;64.96;102331.22;5059028;28;45235;-63
2021/10/11 04:13:42;;;;;;;;;29.50;27.25;;;;;16.24;65.12;102327.47;5053424;28;45393;-63
2021/10/11 04:16:08;;;;;;;;;21.25;21.25;;;;;16.27;65.08;102328.25;5053787;28;47312;-62
2021/10/11 04:18:33;;;;;;;;;24.25;21.00;;;;;16.24;65.04;102320.25;5059201;28;45228;-63
2021/10/11 04:20:59;;;;;;;;;24.25;21.00;;;;;16.29;64.87;102331.78;5059276;28;45540;-63
2021/10/11 04:23:25;;;;;;;;;26.00;22.25;;;;;16.33;65.06;102334.38;5057207;28;45528;-63
2021/10/11 04:25:50;;;;;;;;;22.50;21.25;;;;;16.26;64.95;102321.09;5058775;28;47232;-63
2021/10/11 04:28:16;;;;;;;;;18.75;16.25;;;;;16.36;64.82;102336.97;5059161;28;45476;-63
2021/10/11 04:30:42;;;;;;;;;27.00;19.75;;;;;16.37;64.65;102338.72;5060324;28;45337;-63
2021/10/11 04:33:08;;;;;;;;;21.25;17.25;;;;;16.35;64.94;102336.06;5049610;28;45307;-63
2021/10/11 04:35:34;;;;;;;;;21.75;18.25;;;;;16.38;64.81;102341.38;5056425;28;45624;-63
2021/10/11 04:37:59;;;;;;;;;16.75;16.75;;;;;16.39;64.65;102342.25;5061907;28;45424;-63
2021/10/11 04:40:25;;;;;;;;;19.50;18.00;;;;;16.39;64.80;102343.16;5062349;28;45295;-63
2021/10/11 04:42:50;;;;;;;;;17.50;16.75;;;;;16.39;64.61;102339.56;5062159;28;45289;-63
2021/10/11 04:45:15;;;;;;;;;22.00;18.50;;;;;16.33;64.86;102329.84;5056040;28;45671;-63
2021/10/11 04:47:41;;;;;;;;;20.50;19.25;;;;;16.37;64.54;102341.41;5062255;28;45262;-63
2021/10/11 04:50:07;;;;;;;;;16.25;16.25;;;;;16.37;64.67;102333.34;5062113;28;45373;-63
2021/10/11 04:52:32;;;;;;;;;19.25;16.50;;;;;16.36;64.50;102337.84;5062083;28;45219;-63
2021/10/11 04:54:58;;;;;;;;;14.75;14.50;;;;;16.38;64.77;102340.50;5061853;28;46409;-63
2021/10/11 04:57:24;;;;;;;;;15.50;13.75;;;;;16.40;64.53;102338.63;5067400;28;45195;-63
2021/10/11 04:59:49;;;;;;;;;21.00;19.25;;;;;16.32;64.64;102336.16;5061995;28;45212;-63
2021/10/11 05:02:15;;;;;;;;;16.50;14.00;;;;;16.29;64.46;102341.69;5064862;27;45350;-64
2021/10/11 05:04:40;;;;;;;;;17.25;16.00;;;;;16.29;64.60;102339.00;5065651;28;45868;-62
2021/10/11 05:07:06;;;;;;;;;13.00;13.00;;;;;16.38;64.68;102356.69;5061850;28;45230;-62
2021/10/11 05:09:31;;;;;;;;;14.00;13.00;;;;;16.32;64.77;102352.34;5061666;28;45425;-63
2021/10/11 05:11:57;;;;;;;;;13.25;12.25;;;;;16.37;64.39;102362.97;5061914;28;45355;-63
2021/10/11 05:14:23;;;;;;;;;11.50;11.50;;;;;16.34;64.49;102353.19;5062851;28;46384;-63
2021/10/11 05:16:48;;;;;;;;;12.50;11.50;;;;;16.39;64.49;102355.72;5073372;28;45295;-62
2021/10/11 05:19:14;;;;;;;;;16.00;14.00;;;;;16.23;64.19;102331.94;5061691;28;45594;-62
2021/10/11 05:21:40;;;;;;;;;16.00;12.25;;;;;16.34;64.42;102353.19;5061429;28;45368;-63
2021/10/11 05:24:05;;;;;;;;;13.00;12.00;;;;;16.36;64.37;102351.31;5060250;28;46089;-63
2021/10/11 05:26:31;;;;;;;;;16.50;13.00;;;;;16.35;64.59;102351.38;5061707;28;45320;-63
2021/10/11 05:28:58;;;;;;;;;10.00;9.00;;;;;16.36;64.25;102356.72;5061628;28;45438;-63
2021/10/11 05:31:23;;;;;;;;;11.00;11.00;;;;;16.36;64.28;102351.31;5054802;28;45716;-63
2021/10/11 05:33:49;;;;;;;;;14.25;11.75;;;;;16.37;64.33;102362.97;5054564;28;46119;-63
2021/10/11 05:36:14;;;;;;;;;16.50;14.25;;;;;16.28;64.22;102356.94;5061268;28;45220;-63
2021/10/11 05:38:40;;;;;;;;;10.00;10.00;;;;;16.32;64.19;102373.91;5061305;28;45495;-63
2021/10/11 05:41:05;;;;;;;;;11.75;10.75;;;;;16.26;64.19;102361.50;5061334;28;45264;-63
2021/10/11 05:43:31;;;;;;;;;12.50;10.00;;;;;16.29;64.22;102368.63;5049180;28;46199;-63
2021/10/11 05:45:56;;;;;;;;;10.25;10.00;;;;;16.22;64.00;102354.47;5061244;28;45307;-63
2021/10/11 05:48:21;;;;;;;;;10.00;9.75;;;;;16.20;64.24;102350.91;5074779;28;45463;-63
2021/10/11 05:50:47;;;;;;;;;8.75;8.75;;;;;16.25;64.11;102362.41;5061227;27;45335;-63
2021/10/11 05:53:12;;;;;;;;;12.25;12.25;;;;;16.23;64.13;102358.03;5060166;28;46272;-63
2021/10/11 05:55:38;;;;;;;;;13.50;12.00;;;;;16.18;64.06;102358.16;5060970;28;45369;-63
2021/10/11 05:58:03;;;;;;;;;13.50;11.00;;;;;16.24;64.19;102373.28;5056539;28;45451;-63
2021/10/11 06:00:29;;;;;;;;;9.00;8.50;;;;;16.22;64.17;102375.09;5046285;28;45462;-63
2021/10/11 06:02:54;;;;;;;;;12.25;10.75;;;;;16.24;64.07;102374.16;5059929;28;45600;-63
2021/10/11 06:05:20;;;;;;;;;10.75;10.25;;;;;16.23;64.14;102375.06;5060870;28;45377;-63
2021/10/11 06:07:45;;;;;;;;;9.75;9.75;;;;;16.27;63.96;102386.63;5059100;28;45411;-63
2021/10/11 06:10:11;;;;;;;;;9.50;9.50;;;;;16.08;64.16;102352.16;5060652;28;45581;-70
2021/10/11 06:12:36;;;;;;;;;12.00;10.75;;;;;16.06;64.16;102358.53;5093360;27;46913;-71
2021/10/11 06:15:02;;;;;;;;;9.25;9.25;;;;;16.24;64.15;102387.63;5073720;27;45225;-70
2021/10/11 06:17:27;;;;;;;;;10.75;10.00;;;;;16.26;64.34;102388.44;5075981;28;45327;-72
2021/10/11 06:19:53;;;;;;;;;17.00;14.25;;;;;16.26;63.93;102387.56;5077660;27;45252;-72
2021/10/11 06:22:19;;;;;;;;;10.25;8.75;;;;;16.20;63.91;102382.34;5059583;28;46553;-72
2021/10/11 06:24:44;;;;;;;;;10.50;9.25;;;;;16.30;64.01;102406.31;5060570;28;45746;-71
2021/10/11 06:27:10;;;;;;;;;11.25;10.25;;;;;16.13;63.88;102375.41;5060814;28;45305;-71
2021/10/11 06:29:35;;;;;;;;;8.75;7.75;;;;;16.22;63.60;102400.25;5059239;28;45452;-71
2021/10/11 06:32:01;;;;;;;;;9.50;9.50;;;;;16.10;63.75;102385.34;5056929;28;47350;-70
2021/10/11 06:34:26;;;;;;;;;9.00;8.00;;;;;16.26;63.63;102407.31;5075027;28;45439;-70
2021/10/11 06:36:52;;;;;;;;;9.75;9.00;;;;;16.09;63.44;102380.00;5059921;28;45329;-71
2021/10/11 06:39:17;;;;;;;;;4.00;3.00;;;;;15.91;63.06;102351.78;5058889;28;45283;-71
2021/10/11 06:41:42;;;;;;;;;8.50;6.75;;;;;16.08;63.39;102394.38;5059573;28;45527;-72
2021/10/11 06:44:08;;;;;;;;;6.75;5.50;;;;;16.18;63.52;102413.84;5051772;28;45474;-71
2021/10/11 06:46:33;;;;;;;;;6.25;6.25;;;;;16.12;63.18;102401.44;5054076;28;45393;-71
2021/10/11 06:48:59;;;;;;;;;6.00;6.00;;;;;15.94;63.10;102384.03;5060409;28;45513;-71
2021/10/11 06:51:24;;;;;;;;;8.00;7.00;;;;;15.98;63.00;102385.69;5058709;28;47419;-71
2021/10/11 06:53:50;;;;;;;;;8.00;6.00;;;;;16.08;63.34;102415.94;5058605;28;45318;-71
2021/10/11 06:56:15;;;;;;;;;4.75;4.75;;;;;15.90;62.81;102394.00;5060225;28;45434;-73
2021/10/11 06:58:41;;;;;;;;;6.00;6.00;;;;;15.85;63.33;102395.03;5060108;28;45509;-72
2021/10/11 07:01:06;;;;;;;;;5.25;5.25;;;;;15.84;63.01;102394.16;5065041;28;48137;-71
2021/10/11 07:03:32;;;;;;;;;8.25;6.50;;;;;15.88;63.34;102395.81;5058752;28;45350;-74
2021/10/11 07:06:04;;;;;;;;;6.75;6.00;;;;;15.95;63.14;102404.63;5060168;28;45323;-72
2021/10/11 07:08:30;;;;;;;;;6.50;6.00;;;;;15.89;63.21;102403.00;5059549;28;45393;-69
2021/10/11 07:10:56;;;;;;;;;6.75;5.50;;;;;15.83;62.74;102395.06;5051173;28;46009;-74
2021/10/11 07:13:23;;;;;;;;;6.50;6.50;;;;;15.81;62.99;102390.69;5050578;28;45665;-73
2021/10/11 07:15:49;;;;;;;;;8.50;7.25;;;;;15.89;62.94;102420.97;5072495;28;45310;-73
2021/10/11 07:18:15;;;;;;;;;2.00;2.00;;;;;15.89;62.72;102432.63;5059655;28;45433;-72
2021/10/11 07:20:43;;;;;;;;;5.50;5.50;;;;;15.86;62.97;102429.13;5055627;28;46358;-73
2021/10/11 07:23:12;;;;;;;;;4.00;4.00;;;;;15.83;62.64;102438.16;5055083;28;45466;-73
2021/10/11 07:25:59;;;;;;;;;8.00;6.50;;;;;15.83;62.81;102439.97;5064104;28;45346;-73
2021/10/11 07:28:25;;;;;;;;;5.25;5.25;;;;;15.66;63.11;102421.56;5064242;27;45609;-77
2021/10/11 07:30:52;;;;;;;;;5.50;5.00;;;;;15.59;62.96;102417.28;5054448;28;46636;-69
2021/10/11 07:33:19;;;;;;;;;6.00;6.00;;;;;15.55;62.82;102403.00;5057035;28;45501;-68
2021/10/11 07:35:44;;;;;;;;;14.50;7.00;;;;;15.72;62.61;102446.50;5057864;28;45444;-68
2021/10/11 07:38:10;;;;;;;;;6.00;6.00;;;;;15.80;62.57;102467.84;5056533;28;45397;-68
2021/10/11 07:40:35;;;;;;;;;8.00;4.75;;;;;15.77;63.22;102462.59;5054110;28;45447;-68
2021/10/11 07:43:01;;;;;;;;;10.50;6.75;;;;;15.81;62.57;102469.63;5058413;28;45339;-68
2021/10/11 07:45:26;;;;;;;;;8.00;7.25;;;;;15.73;62.45;102458.16;5072871;28;45390;-68
2021/10/11 07:47:52;;;;;;;;;4.25;4.25;;;;;15.80;62.55;102475.94;5059580;28;45243;-68
2021/10/11 07:50:17;;;;;;;;;5.00;5.00;;;;;15.75;62.56;102461.69;5058487;28;46411;-68
2021/10/11 07:52:42;;;;;;;;;5.00;5.00;;;;;15.70;62.53;102450.16;5091221;27;45342;-68
2021/10/11 07:55:08;;;;;;;;;4.00;4.00;;;;;15.89;62.95;102481.09;5057991;28;45232;-68
2021/10/11 07:57:33;;;;;;;;;6.50;5.50;;;;;15.92;62.48;102478.31;5057858;28;45343;-68
2021/10/11 08:00:01;;;;;;;;;6.75;4.25;;;;;15.95;62.42;102479.16;5057021;28;46042;-68
2021/10/11 08:02:26;;;;;;;;;9.75;5.50;;;;;15.91;62.33;102464.91;5067591;28;45369;-68
2021/10/11 08:04:52;;;;;;;;;6.50;5.25;;;;;15.87;62.00;102466.78;5063571;27;45420;-68
2021/10/11 08:07:17;;;;;;;;;7.50;5.50;;;;;15.82;62.31;102460.66;5090608;27;45545;-68
2021/10/11 08:09:43;;;;;;;;;6.00;5.00;;;;;15.93;62.06;102471.13;5074573;28;47122;-68
2021/10/11 08:12:09;;;;;;;;;5.00;4.00;;;;;15.69;61.89;102434.94;5061152;28;45476;-68
2021/10/11 08:14:35;;;;;;;;;6.50;5.75;;;;;15.89;61.99;102478.41;5062429;28;45390;-68
2021/10/11 08:17:00;;;;;;;;;6.75;5.50;;;;;15.96;61.94;102487.19;5094248;27;45380;-66
2021/10/11 08:19:25;;;;;;;;;5.00;3.75;;;;;15.97;62.07;102478.19;5058645;28;45573;-60
2021/10/11 08:21:51;;;;;;;;;7.50;4.00;;;;;15.97;61.88;102483.59;5061809;28;45448;-62
2021/10/11 08:24:16;;;;;;;;;4.50;4.50;;;;;15.99;61.96;102475.44;5062125;28;45655;-63
2021/10/11 08:26:42;;;;;;;;;5.75;5.00;;;;;16.01;61.92;102471.78;5061467;28;45453;-60
2021/10/11 08:29:07;;;;;;;;;7.00;5.75;;;;;16.05;61.15;102475.28;5060432;28;46072;-60
2021/10/11 08:31:33;;;;;;;;;5.75;5.00;;;;;16.06;61.32;102487.84;5055937;28;45406;-61
2021/10/11 08:33:59;;;;;;;;;3.25;3.25;;;;;16.10;61.44;102481.41;5070512;28;45362;-62
2021/10/11 08:36:25;;;;;;;;;6.00;5.00;;;;;15.98;61.32;102471.88;5059921;28;45468;-62
2021/10/11 08:38:50;;;;;;;;;7.00;5.50;;;;;16.03;61.37;102477.13;5059431;28;45827;-62
2021/10/11 08:41:16;;;;;;;;;5.00;3.00;;;;;15.96;61.20;102449.50;5060852;28;45294;-63
2021/10/11 08:43:41;;;;;;;;;3.25;3.25;;;;;16.16;61.46;102481.25;5061120;28;45772;-62
2021/10/11 08:46:07;;;;;;;;;7.00;4.00;;;;;16.21;61.04;102479.31;5060628;28;45582;-62
2021/10/11 08:48:34;;;;;;;;;3.75;3.00;;;;;16.21;60.66;102482.00;5060997;28;46459;-61
2021/10/11 08:51:00;;;;;;;;;5.75;4.00;;;;;16.20;61.11;102472.16;5047884;28;45407;-61
2021/10/11 08:53:26;;;;;;;;;3.00;3.00;;;;;16.06;60.94;102448.28;5060018;28;45388;-61
2021/10/11 08:55:51;;;;;;;;;4.00;4.00;;;;;16.24;60.95;102484.63;5059080;28;45556;-62
2021/10/11 08:58:17;;;;;;;;;3.00;2.00;;;;;16.32;60.61;102491.59;5058392;28;45636;-62
2021/10/11 09:00:42;;;;;;;;;2.50;2.50;;;;;16.25;60.55;102482.81;5058393;28;45517;-62
2021/10/11 09:03:09;;;;;;;;;5.75;3.50;;;;;16.30;60.37;102483.53;5072469;27;45486;-62
2021/10/11 09:05:41;;;;;;;;;8.25;4.25;;;;;16.41;60.51;102494.91;5059243;28;45370;-61
2021/10/11 09:08:09;;;;;;;;;3.50;3.00;;;;;16.41;59.87;102499.44;5060841;28;45575;-62
2021/10/11 09:10:57;;;;;;;;;3.50;3.00;;;;;16.39;59.49;102506.66;5060443;28;45390;-62
2021/10/11 09:13:31;;;;;;;;;3.50;3.00;;;;;16.33;60.03;102491.53;5060989;28;45402;-62
2021/10/11 09:16:15;;;;;;;;;2.00;2.00;;;;;16.33;59.68;102494.25;5060513;28;45315;-62
2021/10/11 09:18:43;;;;;;;;;2.00;1.00;;;;;16.36;59.51;102498.69;5049612;28;45401;-65
2021/10/11 09:21:09;;;;;;;;;3.50;3.50;;;;;16.33;59.60;102506.84;5060030;28;45341;-61
2021/10/11 09:23:35;;;;;;;;;5.50;3.00;;;;;16.19;60.12;102486.56;5060848;28;45361;-60
2021/10/11 09:26:21;;;;;;;;;4.50;3.50;;;;;16.27;59.74;102495.31;5058845;28;45461;-60
2021/10/11 09:29:46;;;;;;;;;;;;;;;;;;;;;
2021/10/11 09:32:11;;;;;;;;;3.25;3.25;;;;;16.19;59.27;102469.50;5039651;28;71546;-59
2021/10/11 09:34:41;;;;;;;;;7.00;4.00;;;;;16.28;58.94;102480.91;5061423;28;46574;-59
2021/10/11 09:37:23;;;;;;;;;3.50;3.00;;;;;16.27;59.14;102462.97;5072279;27;45633;-59
2021/10/11 09:39:59;;;;;;;;;1.50;1.00;;;;;16.39;58.54;102463.53;5050497;28;48538;-59
2021/10/11 09:42:29;;;;;;;;;5.25;3.00;;;;;16.54;58.50;102475.66;5055776;28;45613;-59
2021/10/11 09:45:01;;;;;;;;;2.00;2.00;;;;;16.32;58.25;102451.16;5058467;28;45402;-59
2021/10/11 09:47:34;;;;;;;;;2.75;2.75;;;;;16.44;57.83;102464.31;5058482;28;45578;-59
2021/10/11 09:50:10;;;;;;;;;5.00;3.00;;;;;16.63;57.98;102487.06;5055180;28;45429;-59
2021/10/11 09:52:46;;;;;;;;;6.50;2.50;;;;;16.48;58.10;102465.97;5061263;28;45702;-59
2021/10/11 09:55:16;;;;;;;;;5.00;3.00;;;;;16.51;58.65;102465.00;5069380;28;45547;-59
2021/10/11 09:57:41;;;;;;;;;2.00;2.00;;;;;16.53;57.48;102455.06;5058420;28;45545;-59
2021/10/11 10:00:37;;;;;;;;;2.00;2.00;;;;;16.42;57.21;102439.19;5050761;28;46123;-62
2021/10/11 10:03:54;;;;;;;;;2.25;2.25;;;;;16.38;57.21;102424.91;5061766;28;45629;-61
2021/10/11 10:06:52;;;;;;;;;;;;;;;;;;;;;
2021/10/11 10:10:17;;;;;;;;;;;;;;;;;;;;;
2021/10/11 10:13:37;;;;;;;;;;;;;;;;;;;;;
2021/10/11 10:16:33;;;;;;;;;;;;;;;;;;;;;
2021/10/11 10:19:21;;;;;;;;;;;;;;;;;;;;;
2021/10/11 10:22:04;;;;;;;;;2.00;2.00;;;;;16.56;56.09;102452.28;5057468;28;73054;-60
2021/10/11 10:25:07;;;;;;;;;4.00;3.00;;;;;16.60;55.93;102454.81;5059633;28;45449;-60
2021/10/11 10:28:24;;;;;;;;;;;;;;;;;;;;;
2021/10/11 10:31:02;;;;;;;;;2.00;2.00;;;;;16.65;55.36;102454.66;5058643;28;68622;-59
2021/10/11 10:34:07;;;;;;;;;;;;;;;;;;;;;
2021/10/11 10:36:43;;;;;;;;;;;;;;;;;;;;;
2021/10/11 10:39:13;;;;;;;;;3.00;2.50;;;;;16.71;54.47;102488.66;5055560;28;74322;-60
2021/10/11 10:41:53;;;;;;;;;4.00;3.00;;;;;16.75;54.72;102488.50;5058380;28;45307;-60
2021/10/11 10:44:31;;;;;;;;;2.75;2.75;;;;;16.61;55.49;102456.56;5045616;28;45407;-59
2021/10/11 10:47:13;;;;;;;;;;;;;;;;;;;;;
2021/10/11 10:49:54;;;;;;;;;3.00;2.00;;;;;16.75;55.24;102472.31;5056408;28;74213;-60
2021/10/11 10:52:23;;;;;;;;;3.75;3.00;;;;;16.61;54.79;102443.09;5066032;27;45389;-59
2021/10/11 10:54:58;;;;;;;;;5.00;4.00;;;;;16.68;54.99;102449.19;5064250;28;45469;-60
2021/10/11 10:57:43;;;;;;;;;;;;;;;;;;;;;
2021/10/11 11:00:23;;;;;;;;;2.75;2.25;;;;;16.69;54.65;102456.34;5044054;28;73440;-59
2021/10/11 11:02:50;;;;;;;;;4.75;2.75;;;;;16.80;54.38;102478.44;5055133;28;45194;-60
2021/10/11 11:05:44;;;;;;;;;;;;;;;;;;;;;
2021/10/11 11:08:32;;;;;;;;;;;;;;;;;;;;;
2021/10/11 11:11:15;;;;;;;;;3.75;2.00;;;;;16.68;53.35;102473.44;5055116;28;72925;-59
2021/10/11 11:14:03;;;;;;;;;3.00;3.00;;;;;16.63;53.89;102462.78;5058057;28;45382;-59
2021/10/11 11:16:43;;;;;;;;;;;;;;;;;;;;;
2021/10/11 11:19:29;;;;;;;;;;;;;;;;;;;;;
2021/10/11 11:22:09;;;;;;;;;2.00;2.00;;;;;16.80;52.60;102478.44;5058213;28;72902;-60
2021/10/11 11:25:03;;;;;;;;;;;;;;;;;;;;;
2021/10/11 11:27:49;;;;;;;;;3.00;3.00;;;;;16.75;52.95;102469.63;5070902;28;72790;-60
2021/10/11 11:30:46;;;;;;;;;3.50;3.50;;;;;16.76;53.12;102451.66;5061362;28;45550;-59
2021/10/11 11:33:29;;;;;;;;;;;;;;;;;;;;;
2021/10/11 11:35:57;;;;;;;;;3.75;3.75;;;;;16.78;52.36;102436.31;5041375;28;67823;-59
2021/10/11 11:38:27;;;;;;;;;2.75;2.75;;;;;17.01;52.34;102467.97;5055436;28;45849;-59
2021/10/11 11:40:56;;;;;;;;;3.25;3.25;;;;;16.92;52.32;102441.28;5057856;28;45815;-59
2021/10/11 11:43:29;;;;;;;;;1.00;1.00;;;;;16.90;52.49;102440.47;5057519;28;45968;-59
2021/10/11 11:49:08;;;;;;;;;3.25;2.50;;;;;17.03;52.21;102458.00;5048640;28;46400;-59
2021/10/11 11:51:34;;;;;;;;;4.50;2.00;;;;;16.82;51.95;102427.16;5058283;28;45430;-59
2021/10/11 11:54:03;;;;;;;;;2.75;2.75;;;;;16.90;52.10;102433.22;5057416;28;45533;-59